x

Yucatan Basin - 120 Nm Ese Of Cozumel, Mx (42056) Weather Station

1:40 - Thu 26th May 2016 All times are CDT. -5 hours from GMT.

  • Wind
    13mph, 16mph gusts
  • Sea Temp 84°f
  • Aire Temp 83°f
  • Sea Pressure 1015mb
  •  Yucatan Basin - 120 Nm Ese Of Cozumel, Mx
  •  Yucatan Basin - 120 Nm Ese Of Cozumel, Mx

More Historic Weather Station data

Upgrade to MSW Pro to gain access to the past 30 days of data for over 8000 Wavebouys and Weather Stations around the globe.

Join Pro

Comparision Forecast

View Surf forecast
   
jue 05/26 1:40  -   -   -  13 16 mph 1015mb 84f 83f
1:30  -   -   -  13 16 mph 1015mb 84f 83f
1:20  -   -   -  13 18 mph 1015.1mb 84f 83f
1:10  -   -   -  11 13 mph 1015.3mb 84f 83f
1:00  -   -   -  11 13 mph 1015.5mb 84f 83f
12:50 3.5ft 5s 5s 11 13 mph 1015.5mb 84f 84f
12:40  -   -   -  11 13 mph 1015.6mb 84f 84f
12:30  -   -   -  13 16 mph 1015.9mb 84f 84f
12:20  -   -   -  13 16 mph 1015.9mb 84f 83f
12:10  -   -   -  13 18 mph 1015.9mb 84f 82f
12:00  -   -   -  13 18 mph 1016mb 84f 82f
mié 05/25 11:50 3.5ft 6s 5s 16 20 mph 1016.1mb 84f 83f
11:40  -   -   -  16 22 mph 1016.4mb 85f 84f
11:30  -   -   -  13 18 mph 1016.3mb 85f 84f
11:20  -   -   -  13 16 mph 1016.4mb 85f 84f
11:10  -   -   -  13 18 mph 1016.3mb 85f 84f
11:00  -   -   -  13 16 mph 1016.4mb 85f 84f
10:50 3.5ft 6s 5s 13 18 mph 1016.5mb 85f 84f
10:40  -   -   -  13 16 mph 1016.3mb 85f 84f
10:30  -   -   -  13 18 mph 1016.5mb 85f 84f
10:20  -   -   -  16 18 mph 1016.5mb 85f 84f
10:10  -   -   -  16 20 mph 1016.4mb 85f 84f
10:00  -   -   -  16 20 mph 1016.4mb 85f 84f
9:50 4ft 6s 5s 16 20 mph 1016.1mb 85f 84f
9:40  -   -   -  16 18 mph 1016.1mb 85f 84f
9:30  -   -   -  16 20 mph 1016mb 85f 84f
9:20  -   -   -  16 18 mph 1016mb 85f 84f
9:10  -   -   -  16 18 mph 1015.9mb 85f 84f
9:00  -   -   -  16 18 mph 1015.8mb 85f 84f
8:50 3.5ft 6s 5s 16 18 mph 1015.6mb 85f 84f
8:40  -   -   -  16 18 mph 1015.5mb 85f 84f
8:30  -   -   -  16 20 mph 1015.5mb 85f 84f
8:20  -   -   -  16 20 mph 1015.4mb 85f 84f
8:10  -   -   -  16 20 mph 1015.5mb 85f 84f
8:00  -   -   -  16 20 mph 1015.4mb 85f 84f
7:50 3.5ft 6s 4s 18 20 mph 1015.1mb 85f 84f
7:40  -   -   -  18 20 mph 1015.1mb 85f 84f
7:30  -   -   -  18 20 mph 1015.1mb 85f 84f
7:20  -   -   -  18 20 mph 1015mb 85f 84f
7:10  -   -   -  18 22 mph 1015mb 85f 84f
7:00  -   -   -  18 22 mph 1014.9mb 85f 84f
6:50 3.5ft 6s 4s 18 20 mph 1014.9mb 85f 84f
6:40  -   -   -  18 22 mph 1014.8mb 85f 84f
6:30  -   -   -  18 22 mph 1014.8mb 85f 85f
6:20  -   -   -  16 20 mph 1014.9mb 85f 85f
6:10  -   -   -  16 18 mph 1015mb 85f 84f
6:00  -   -   -  16 18 mph 1014.8mb 85f 84f
5:50 3.5ft 9s 5s 16 20 mph 1014.8mb 85f 84f
5:40  -   -   -  16 18 mph 1014.8mb 85f 84f
5:30  -   -   -  18 22 mph 1014.8mb 85f 84f
5:20  -   -   -  13 16 mph 1014.8mb 85f 85f
5:10  -   -   -  11 16 mph 1014.8mb 85f 85f
5:00  -   -   -  13 16 mph 1014.9mb 85f 85f
4:50 3.5ft 6s 5s 13 18 mph 1014.9mb - 85f
4:40  -   -   -  13 16 mph 1015mb 85f 84f
4:30  -   -   -  11 16 mph 1015mb 85f 84f
4:20  -   -   -  11 16 mph 1015mb 85f 84f
4:10  -   -   -  11 16 mph 1015mb 85f 84f
4:00  -   -   -  11 16 mph 1015mb 85f 84f
3:50 3.5ft 6s 5s 11 13 mph 1015.1mb 85f 84f
3:40 3.5ft  -  5s 11 13 mph 1015mb 85f 84f
3:30  -   -   -  11 13 mph 1015.1mb 85f 85f
3:20  -   -   -  11 13 mph 1015.4mb 85f 85f
3:10  -   -   -  13 16 mph 1015.4mb 85f 85f
3:00  -   -   -  13 16 mph 1015.5mb 85f 85f
2:50 3.5ft 6s 5s 13 16 mph 1015.4mb 85f 85f
2:40 3.5ft  -  5s 11 16 mph 1015.5mb 85f 85f
2:30  -   -   -  11 16 mph 1015.6mb 85f 85f
2:20  -   -   -  11 13 mph 1015.6mb 85f 85f
2:10  -   -   -  11 13 mph 1015.6mb 85f 85f
2:00  -   -   -  11 13 mph 1015.9mb 85f 84f
1:50 3.5ft  -  5s 11 16 mph 1015.9mb 85f 84f
1:40 3.5ft 5s  -   -  mph - - -
1:30  -   -   -  11 13 mph 1016mb 85f 84f
1:20  -   -   -  11 13 mph 1016mb 85f 84f
1:10  -   -   -  9 11 mph 1016mb 85f 84f
1:00  -   -   -  9 11 mph 1016.1mb 85f 84f
12:50 3.5ft 4s 5s 7 9 mph 1016.1mb 85f 84f
12:40  -   -   -  9 11 mph 1016.1mb 85f 84f
12:30  -   -   -  9 13 mph 1016.3mb 85f 84f
12:20  -   -   -  11 13 mph 1016.3mb 85f 84f
12:10  -   -   -  11 16 mph 1016.4mb 85f 84f
12:00  -   -   -  11 16 mph 1016.4mb 85f 84f
11:50 3.5ft 5s 5s 13 16 mph 1016.5mb 85f 84f
11:40 3.5ft  -  5s 13 16 mph 1016.6mb 85f 84f
11:30  -   -   -  13 18 mph 1016.8mb 85f 84f
11:20  -   -   -  11 13 mph 1016.8mb 84f 84f
11:10  -   -   -  11 13 mph 1016.6mb 84f 84f
11:00  -   -   -  11 13 mph 1016.6mb 84f 84f
10:50 3.5ft 9s 5s 13 16 mph 1016.6mb 84f 84f
10:40  -   -   -  13 16 mph 1016.6mb 84f 84f
10:30  -   -   -  13 16 mph 1016.9mb 84f 84f
10:20  -   -   -  13 16 mph 1016.9mb 84f 84f
10:10  -   -   -  13 16 mph 1016.9mb 84f 84f
10:00  -   -   -  13 16 mph 1016.6mb 84f 84f
9:50 3.5ft 9s 4s 13 16 mph 1016.8mb 84f 84f
9:40  -   -   -  13 16 mph 1016.6mb 84f 84f
9:30  -   -   -  16 18 mph 1016.6mb 84f 84f
9:20  -   -   -  16 18 mph 1016.6mb 84f 84f
9:10  -   -   -  16 18 mph 1017mb 84f 84f
9:00  -   -   -  16 18 mph 1016.9mb 84f 84f
8:50 3.5ft 9s 4s 16 18 mph 1016.6mb 84f 84f
8:40  -   -   -  16 18 mph 1016.6mb 84f 84f
8:30  -   -   -  16 18 mph 1016.8mb 84f 84f
8:20  -   -   -  16 20 mph 1016.6mb 84f 84f
8:10  -   -   -  16 18 mph 1016.6mb 84f 84f
8:00  -   -   -  16 18 mph 1016.5mb 84f 84f
7:50 3ft 9s 4s 16 18 mph 1016.4mb 84f 84f
7:40  -   -   -  16 18 mph 1016.4mb 84f 84f
7:30  -   -   -  13 16 mph 1016.5mb 84f 84f
7:20  -   -   -  13 18 mph 1016.4mb 84f 84f
7:10  -   -   -  16 18 mph 1016.1mb 84f 84f
7:00  -   -   -  13 16 mph 1016.1mb 84f 84f
6:50 3ft 8s 5s 13 16 mph 1016mb 84f 84f
6:40  -   -   -  11 16 mph 1016mb 84f 84f
6:30  -   -   -  11 13 mph 1016mb 84f 83f
6:20  -   -   -  11 16 mph 1015.6mb 84f 84f
6:10  -   -   -  13 16 mph 1015.6mb 84f 84f
6:00  -   -   -  13 16 mph 1015.5mb 84f 84f
5:50 2.5ft 9s 5s 13 18 mph 1015.5mb 84f 84f
5:40  -   -   -  13 16 mph 1015.4mb 84f 83f
5:30  -   -   -  11 16 mph 1015.5mb 84f 83f
5:20  -   -   -  11 13 mph 1015.4mb 84f 83f
5:10  -   -   -  11 13 mph 1015.3mb 84f 83f
5:00  -   -   -  11 13 mph 1015.1mb 84f 83f
4:50 2.5ft 9s 5s 11 13 mph 1015.1mb - 83f
4:40  -   -   -  11 13 mph 1015.1mb 84f 83f
4:30  -   -   -  11 16 mph 1015mb 84f 83f
4:20  -   -   -  11 13 mph 1015.1mb 84f 83f
4:10  -   -   -  11 13 mph 1015.1mb 84f 83f
4:00  -   -   -  11 13 mph 1015.1mb 84f 83f
3:50 2.5ft 9s 5s 11 13 mph 1015.1mb 84f 83f
3:40 2.5ft  -  5s 11 13 mph 1015mb 84f 83f
3:30  -   -   -  11 13 mph 1015mb 84f 83f
3:20  -   -   -  11 13 mph 1015mb 84f 83f
3:10  -   -   -  11 13 mph 1015mb 84f 83f
3:00  -   -   -  11 13 mph 1014.9mb 84f 83f
2:50 2.5ft 4s 4s 11 13 mph 1014.9mb 84f 83f
2:40 2.5ft  -  4s 11 13 mph 1015mb 84f 83f
2:30  -   -   -  11 13 mph 1015mb 84f 83f
2:20  -   -   -  9 11 mph 1015mb 84f 83f
2:10  -   -   -  9 11 mph 1015.1mb 84f 83f
2:00  -   -   -  9 11 mph 1015.1mb 84f 83f
1:50 2.5ft 8s 4s 9 11 mph 1015.4mb 84f 84f
1:40  -   -   -  9 11 mph 1015.4mb 84f 83f
1:30  -   -   -  9 11 mph 1015.4mb 84f 84f
1:20  -   -   -  9 11 mph 1015.3mb 84f 84f
1:10  -   -   -  9 11 mph 1015.3mb 84f 84f
1:00  -   -   -  11
mph
1015.5mb 84f 84f
12:50 3ft 8s 4s 11 13 mph 1015.6mb 84f 84f
12:40  -   -   -  11
mph
1015.9mb 84f 84f
12:30  -   -   -  11 13 mph 1016mb 84f 84f
12:20  -   -   -  11 13 mph 1016.1mb 84f 84f
12:10  -   -   -  13 16 mph 1016.1mb 84f 84f
12:00  -   -   -  13 16 mph 1016.1mb 84f 84f
mar 05/24 11:50 3ft 7s 4s 13 16 mph 1016.4mb 84f 84f
11:40 3ft  -  4s 11 16 mph 1016.5mb 84f 84f
11:30  -   -   -  13 16 mph 1016.5mb 84f 84f
11:20  -   -   -  13 16 mph 1016.5mb 84f 84f
11:10  -   -   -  13 16 mph 1016.5mb 84f 84f
11:00  -   -   -  13 18 mph 1016.5mb 84f 84f
10:50 3ft 5s 4s 13 18 mph 1016.5mb 84f 84f
10:40  -   -   -  13 18 mph 1016.5mb 84f 84f
10:30  -   -   -  13 16 mph 1016.5mb 84f 84f
10:20  -   -   -  13 18 mph 1016.5mb 84f 84f
10:10  -   -   -  13 16 mph 1016.3mb 84f 84f
10:00  -   -   -  13 18 mph 1016.1mb - 84f
9:50 3ft 8s 4s 13 18 mph 1016mb 84f 84f
9:40  -   -   -  16 18 mph 1016mb 84f 84f
9:30  -   -   -  13 18 mph 1016mb 84f 84f
9:20  -   -   -  16 20 mph 1015.8mb 84f 84f
9:10  -   -   -  16 18 mph 1015.9mb 84f 84f
9:00  -   -   -  13 18 mph 1015.9mb 84f 84f
8:50 2.5ft 8s 4s 13 18 mph 1016mb 84f 84f
8:40  -   -   -  13 18 mph 1015.6mb 84f 84f
8:30  -   -   -  13 16 mph 1015.5mb 84f 84f
8:20  -   -   -  13 18 mph 1015.5mb - 84f
8:10  -   -   -  13 16 mph 1015.5mb 84f 84f
8:00  -   -   -  13 18 mph 1015.5mb 84f 84f
7:50 2.5ft 4s 4s 13 16 mph 1015.4mb 84f 84f
7:40  -   -   -  13 18 mph 1015.4mb 84f 84f
7:30  -   -   -  11 13 mph 1015.4mb 84f 85f
7:20  -   -   -  11 13 mph 1015.3mb 84f 84f
7:10  -   -   -  11 13 mph 1015.1mb 84f 85f
7:00  -   -   -  13 16 mph 1015.1mb 84f 85f
6:50 2.5ft 8s 4s 13 16 mph 1015mb 84f 85f
6:40  -   -   -  13 16 mph 1014.9mb 85f 85f
6:30  -   -   -  13 16 mph 1014.8mb 84f 85f
6:20  -   -   -  13 16 mph 1014.8mb 85f 85f
6:10  -   -   -  11 16 mph 1014.6mb 85f 84f
6:00  -   -   -  11 16 mph 1014.6mb 85f 84f
5:50 2.5ft  -  4s 13 16 mph 1014.5mb - 83f
5:40 2.5ft 8s  -   -  mph - 85f -
5:30  -   -   -  11 13 mph 1014.5mb 85f 85f
5:20  -   -   -  11 13 mph 1014.5mb 85f 85f
5:10  -   -   -  11 16 mph 1014.5mb 85f 85f
5:00  -   -   -  13 16 mph 1014.5mb 85f 85f
4:50 2.5ft 5s 4s 13 16 mph 1014.5mb 85f 85f
4:40  -   -   -  13 16 mph 1014.6mb 85f 85f
4:30  -   -   -  13 16 mph 1014.6mb 85f 85f
4:20  -   -   -  13 16 mph 1014.6mb 85f 84f
4:10  -   -   -  13 16 mph 1014.6mb 85f 84f
4:00  -   -   -  13 16 mph 1014.8mb 85f 84f
3:50 2.5ft 5s 4s 13 16 mph 1014.8mb 85f 84f
3:40  -   -   -  13 16 mph 1014.8mb 85f 84f
3:30  -   -   -  13 16 mph 1014.8mb 85f 84f
3:20  -   -   -  13 16 mph 1014.9mb 85f 84f
3:10  -   -   -  11 13 mph 1014.9mb 85f 84f
3:00  -   -   -  11 13 mph 1014.9mb 85f 84f
2:50 2.5ft 5s 4s 11 16 mph 1015mb 85f 84f
2:40  -   -   -  11 13 mph 1015mb 85f 84f
2:30  -   -   -  13
mph
1015mb 85f 84f
2:20  -   -   -  11 13 mph 1015.1mb 85f 85f
2:10  -   -   -  13 16 mph 1015.1mb 85f 84f
2:00  -   -   -  11 16 mph 1015.4mb 85f 84f
1:50 2.5ft 4s 4s 13 16 mph 1015.3mb 85f 84f
1:40  -   -   -  11 13 mph 1015.4mb 85f 84f
1:30  -   -   -  13 16 mph 1015.5mb 85f 84f
1:20  -   -   -  13 16 mph 1015.6mb 85f 84f
1:10  -   -   -  13 16 mph 1015.6mb 84f 84f
1:00  -   -   -  13 16 mph 1015.5mb 85f 84f
12:50 2.5ft 8s 4s 13 16 mph 1015.5mb 84f 84f
12:40  -   -   -  13 16 mph 1015.5mb 84f 84f
12:30  -   -   -  13 16 mph 1015.5mb 84f 84f
12:20  -   -   -  13 16 mph 1015.6mb 84f 84f
12:10  -   -   -  13 16 mph 1015.6mb 84f 84f
12:00  -   -   -  13 16 mph 1015.6mb 84f 84f
11:50 2.5ft 5s 4s 13 16 mph 1015.6mb 84f 84f
11:40  -   -   -  11 13 mph 1015.6mb 84f 84f
11:30  -   -   -  13 16 mph 1015.6mb 84f 84f
11:20  -   -   -  13 16 mph 1015.5mb 84f 84f
11:10  -   -   -  13 16 mph 1015.5mb - 84f
11:00  -   -   -  13 16 mph 1015.5mb 84f 84f
10:50 2.5ft 4s 4s 13 16 mph 1015.6mb 84f 84f
10:40  -   -   -  13 18 mph 1015.6mb 84f 84f
10:30  -   -   -  16 18 mph 1015.6mb 84f 84f
10:20  -   -   -  13 18 mph 1015.6mb 84f 84f
10:10  -   -   -  13 16 mph 1015.9mb 84f 84f
10:00  -   -   -  13 18 mph 1015.9mb 84f 84f
9:50 2.5ft 8s 4s 13 18 mph 1015.6mb 84f 84f
9:40  -   -   -  13 16 mph 1015.6mb 84f 84f
9:30  -   -   -  13 16 mph 1015.5mb 84f 84f
9:20  -   -   -  13 16 mph 1015.5mb 84f 84f
9:10  -   -   -  13 16 mph 1015.4mb 84f 84f
9:00  -   -   -  13 16 mph 1015.1mb 84f 84f
8:50 2.5ft 5s 4s 11 13 mph 1015.1mb 84f 84f
8:40  -   -   -  11 13 mph 1015.4mb 84f 84f
8:30  -   -   -  11 13 mph 1015.1mb 84f 84f
8:20  -   -   -  11 16 mph 1015.1mb 84f 84f
8:10  -   -   -  11 16 mph 1014.8mb 84f 84f
8:00  -   -   -  13 16 mph 1014.8mb 84f 84f
7:50 2.5ft 4s 4s 13 16 mph 1014.5mb 84f 84f
7:40  -   -   -  13 16 mph 1014.5mb 84f 84f
7:30  -   -   -  13 16 mph 1014.5mb 84f 84f
lun 05/23 10:50 2.5ft 8s 5s 11 13 mph - - -
9:50 2.5ft 9s 4s 9 11 mph - - -
8:50 2.5ft 9s 5s 11 13 mph - - -
7:50 2.5ft 8s 4s 13
mph
- - -
6:50 2.5ft 8s 4s 11 13 mph - - -
5:50 2.5ft 4s 4s 11 13 mph - - -
4:50 2.5ft 9s 4s 11 16 mph - - -
3:50 2.5ft 8s 4s 13 16 mph - - -
2:50 2.5ft 9s 4s 13 16 mph - - -
1:50 3ft 8s 4s 13 18 mph - - -
12:50 2.5ft 8s 4s 13 16 mph - - -
11:50 2.5ft 8s 4s 16 18 mph - - -
10:50 2.5ft 9s 4s 13 18 mph - - -
9:50 2.5ft 9s 4s 13 16 mph - - -
8:50 2.5ft 8s 4s 13 16 mph - - -
7:50 2ft 9s 4s 11 13 mph - - -
6:50 2.5ft 9s 5s 13 16 mph - - -
5:50 2.5ft 9s  -  13 16 mph - - -
4:50 2ft 9s 5s 11 16 mph - - -
3:50 2ft 9s 5s 11 13 mph - - -
2:50 2ft 9s 5s 9 11 mph - - -
1:50 2ft 8s 5s 9
mph
- - -
12:50 2ft 9s 5s 9 11 mph - - -
dom 05/22 11:50 2.5ft 9s 5s 9
mph
- - -
10:50 2ft 8s 5s 4 7 mph - - -
9:50 2ft 9s 5s 9 11 mph - - -
8:50 2ft 9s 5s 11
mph
- - -
7:50 2ft 9s 5s 9 11 mph - - -
6:50 2ft 8s 5s 9 11 mph - - -
5:50 2ft 8s 5s 11
mph
- - -
4:50 2.5ft 8s 5s 11
mph
- - -
3:50 2ft 7s 5s 11
mph
- - -
2:50 2ft 8s 5s 7 9 mph - - -
1:50 2.5ft 8s 5s 9 11 mph - - -
12:50 2.5ft 7s 5s 9 11 mph - - -
11:50 2.5ft 7s 5s 9 11 mph - - -
10:50 2ft 10s 5s 11 13 mph - - -
9:50 2.5ft 9s 5s 11
mph
- - -
8:50 2ft 8s 5s 7 9 mph - - -
7:50 2.5ft 9s 5s 9 11 mph - - -